sensor_id;sensor_type;location;lat;lon;timestamp;temperature;humidity
10437;DHT22;5265;50.006;9.202;2023-01-10T00:01:18;5.70;99.90
10437;DHT22;5265;50.006;9.202;2023-01-10T00:03:45;5.70;99.90
10437;DHT22;5265;50.006;9.202;2023-01-10T00:06:12;5.80;99.90
10437;DHT22;5265;50.006;9.202;2023-01-10T00:08:39;5.80;99.90
10437;DHT22;5265;50.006;9.202;2023-01-10T00:11:08;5.80;99.90
10437;DHT22;5265;50.006;9.202;2023-01-10T00:13:51;5.80;99.90
10437;DHT22;5265;50.006;9.202;2023-01-10T00:16:18;5.80;99.90
10437;DHT22;5265;50.006;9.202;2023-01-10T00:18:45;5.90;99.90
10437;DHT22;5265;50.006;9.202;2023-01-10T00:21:12;5.80;99.90
10437;DHT22;5265;50.006;9.202;2023-01-10T00:23:40;5.90;99.90
10437;DHT22;5265;50.006;9.202;2023-01-10T00:26:09;5.80;99.90
10437;DHT22;5265;50.006;9.202;2023-01-10T00:28:36;5.80;99.90
10437;DHT22;5265;50.006;9.202;2023-01-10T00:31:04;5.90;99.90
10437;DHT22;5265;50.006;9.202;2023-01-10T00:33:31;5.90;99.90
10437;DHT22;5265;50.006;9.202;2023-01-10T00:35:58;5.90;99.90
10437;DHT22;5265;50.006;9.202;2023-01-10T00:38:25;5.90;99.90
10437;DHT22;5265;50.006;9.202;2023-01-10T00:40:52;5.90;99.90
10437;DHT22;5265;50.006;9.202;2023-01-10T00:43:21;5.90;99.90
10437;DHT22;5265;50.006;9.202;2023-01-10T00:46:06;5.90;99.90
10437;DHT22;5265;50.006;9.202;2023-01-10T00:48:33;6.00;99.90
10437;DHT22;5265;50.006;9.202;2023-01-10T00:51:01;5.90;99.90
10437;DHT22;5265;50.006;9.202;2023-01-10T00:53:28;5.90;99.90
10437;DHT22;5265;50.006;9.202;2023-01-10T00:55:55;5.90;99.90
10437;DHT22;5265;50.006;9.202;2023-01-10T00:58:24;6.00;99.90
10437;DHT22;5265;50.006;9.202;2023-01-10T01:00:51;6.00;99.90
10437;DHT22;5265;50.006;9.202;2023-01-10T01:03:19;5.90;99.90
10437;DHT22;5265;50.006;9.202;2023-01-10T01:05:47;5.90;99.90
10437;DHT22;5265;50.006;9.202;2023-01-10T01:08:15;5.80;99.90
10437;DHT22;5265;50.006;9.202;2023-01-10T01:10:42;5.90;99.90
10437;DHT22;5265;50.006;9.202;2023-01-10T01:13:11;5.90;99.90
10437;DHT22;5265;50.006;9.202;2023-01-10T01:15:40;5.80;99.90
10437;DHT22;5265;50.006;9.202;2023-01-10T01:18:08;5.80;99.90
10437;DHT22;5265;50.006;9.202;2023-01-10T01:20:37;5.70;99.90
10437;DHT22;5265;50.006;9.202;2023-01-10T01:23:04;5.80;99.90
10437;DHT22;5265;50.006;9.202;2023-01-10T01:25:31;5.90;99.90
10437;DHT22;5265;50.006;9.202;2023-01-10T01:27:58;5.80;99.90
10437;DHT22;5265;50.006;9.202;2023-01-10T01:30:26;5.80;99.90
10437;DHT22;5265;50.006;9.202;2023-01-10T01:32:55;5.90;99.90
10437;DHT22;5265;50.006;9.202;2023-01-10T01:35:22;5.80;99.90
10437;DHT22;5265;50.006;9.202;2023-01-10T01:37:50;5.80;99.90
10437;DHT22;5265;50.006;9.202;2023-01-10T01:40:17;5.70;99.90
10437;DHT22;5265;50.006;9.202;2023-01-10T01:42:45;5.70;99.90
10437;DHT22;5265;50.006;9.202;2023-01-10T01:48:00;5.80;99.90
10437;DHT22;5265;50.006;9.202;2023-01-10T01:50:31;5.80;99.90
10437;DHT22;5265;50.006;9.202;2023-01-10T01:52:59;5.80;99.90
10437;DHT22;5265;50.006;9.202;2023-01-10T01:55:28;5.70;99.90
10437;DHT22;5265;50.006;9.202;2023-01-10T01:57:57;5.70;99.90
10437;DHT22;5265;50.006;9.202;2023-01-10T02:00:25;5.70;99.90
10437;DHT22;5265;50.006;9.202;2023-01-10T02:02:53;5.70;99.90
10437;DHT22;5265;50.006;9.202;2023-01-10T02:05:23;5.70;99.90
10437;DHT22;5265;50.006;9.202;2023-01-10T02:07:52;5.70;99.90
10437;DHT22;5265;50.006;9.202;2023-01-10T02:10:21;5.70;99.90
10437;DHT22;5265;50.006;9.202;2023-01-10T02:12:50;5.70;99.90
10437;DHT22;5265;50.006;9.202;2023-01-10T02:15:18;5.70;99.90
10437;DHT22;5265;50.006;9.202;2023-01-10T02:17:45;5.80;99.90
10437;DHT22;5265;50.006;9.202;2023-01-10T02:20:13;5.80;99.90
10437;DHT22;5265;50.006;9.202;2023-01-10T02:33:58;5.70;99.90
10437;DHT22;5265;50.006;9.202;2023-01-10T02:36:31;5.80;99.90
10437;DHT22;5265;50.006;9.202;2023-01-10T02:39:01;5.70;99.90
10437;DHT22;5265;50.006;9.202;2023-01-10T02:41:32;5.60;99.90
10437;DHT22;5265;50.006;9.202;2023-01-10T02:44:02;5.70;99.90
10437;DHT22;5265;50.006;9.202;2023-01-10T02:46:30;5.70;99.90
10437;DHT22;5265;50.006;9.202;2023-01-10T02:48:59;5.60;99.90
10437;DHT22;5265;50.006;9.202;2023-01-10T02:51:26;5.60;99.90
10437;DHT22;5265;50.006;9.202;2023-01-10T02:53:54;5.60;99.90
10437;DHT22;5265;50.006;9.202;2023-01-10T02:59:20;5.70;99.90
10437;DHT22;5265;50.006;9.202;2023-01-10T03:01:52;5.60;99.90
10437;DHT22;5265;50.006;9.202;2023-01-10T03:04:24;5.70;99.90
10437;DHT22;5265;50.006;9.202;2023-01-10T03:06:55;5.60;99.90
10437;DHT22;5265;50.006;9.202;2023-01-10T03:09:26;5.50;99.90
10437;DHT22;5265;50.006;9.202;2023-01-10T03:11:56;5.50;99.90
10437;DHT22;5265;50.006;9.202;2023-01-10T03:14:27;5.50;99.90
10437;DHT22;5265;50.006;9.202;2023-01-10T03:16:55;5.60;99.90
10437;DHT22;5265;50.006;9.202;2023-01-10T03:19:25;5.50;99.90
10437;DHT22;5265;50.006;9.202;2023-01-10T03:21:54;5.50;99.90
10437;DHT22;5265;50.006;9.202;2023-01-10T03:24:23;5.50;99.90
10437;DHT22;5265;50.006;9.202;2023-01-10T03:26:52;5.60;99.90
10437;DHT22;5265;50.006;9.202;2023-01-10T03:29:23;5.60;99.90
10437;DHT22;5265;50.006;9.202;2023-01-10T03:31:52;5.50;99.90
10437;DHT22;5265;50.006;9.202;2023-01-10T03:34:20;5.50;99.90
10437;DHT22;5265;50.006;9.202;2023-01-10T03:36:51;5.50;99.90
10437;DHT22;5265;50.006;9.202;2023-01-10T03:39:25;5.40;99.90
10437;DHT22;5265;50.006;9.202;2023-01-10T03:41:55;5.50;99.90
10437;DHT22;5265;50.006;9.202;2023-01-10T03:44:26;5.40;99.90
10437;DHT22;5265;50.006;9.202;2023-01-10T03:47:09;5.50;99.90
10437;DHT22;5265;50.006;9.202;2023-01-10T03:49:38;5.40;99.90
10437;DHT22;5265;50.006;9.202;2023-01-10T03:52:07;5.50;99.90
10437;DHT22;5265;50.006;9.202;2023-01-10T03:54:36;5.40;99.90
10437;DHT22;5265;50.006;9.202;2023-01-10T03:57:04;5.40;99.90
10437;DHT22;5265;50.006;9.202;2023-01-10T03:59:32;5.30;99.90
10437;DHT22;5265;50.006;9.202;2023-01-10T04:01:59;5.40;99.90
10437;DHT22;5265;50.006;9.202;2023-01-10T04:04:26;5.30;99.90
10437;DHT22;5265;50.006;9.202;2023-01-10T04:06:53;5.30;99.90
10437;DHT22;5265;50.006;9.202;2023-01-10T04:09:22;5.30;99.90
10437;DHT22;5265;50.006;9.202;2023-01-10T04:11:49;5.40;99.90
10437;DHT22;5265;50.006;9.202;2023-01-10T04:14:16;5.40;1.00
10437;DHT22;5265;50.006;9.202;2023-01-10T04:16:43;5.30;99.90
10437;DHT22;5265;50.006;9.202;2023-01-10T04:19:10;5.50;1.00
10437;DHT22;5265;50.006;9.202;2023-01-10T04:21:38;5.40;99.90
10437;DHT22;5265;50.006;9.202;2023-01-10T04:24:05;5.30;1.00
10437;DHT22;5265;50.006;9.202;2023-01-10T04:26:34;5.30;99.90
10437;DHT22;5265;50.006;9.202;2023-01-10T04:29:02;5.30;99.90
10437;DHT22;5265;50.006;9.202;2023-01-10T04:31:31;5.30;1.00
10437;DHT22;5265;50.006;9.202;2023-01-10T04:33:58;5.30;1.00
10437;DHT22;5265;50.006;9.202;2023-01-10T04:36:25;5.30;1.00
10437;DHT22;5265;50.006;9.202;2023-01-10T04:38:53;5.50;1.00
10437;DHT22;5265;50.006;9.202;2023-01-10T04:41:20;5.40;91.10
10437;DHT22;5265;50.006;9.202;2023-01-10T04:43:48;5.40;96.00
10437;DHT22;5265;50.006;9.202;2023-01-10T04:46:16;5.40;99.90
10437;DHT22;5265;50.006;9.202;2023-01-10T04:48:43;5.40;99.90
10437;DHT22;5265;50.006;9.202;2023-01-10T04:51:09;5.40;99.90
10437;DHT22;5265;50.006;9.202;2023-01-10T04:53:37;5.40;99.90
10437;DHT22;5265;50.006;9.202;2023-01-10T04:56:04;5.40;99.90
10437;DHT22;5265;50.006;9.202;2023-01-10T04:58:32;5.40;99.90
10437;DHT22;5265;50.006;9.202;2023-01-10T05:01:05;5.40;99.90
10437;DHT22;5265;50.006;9.202;2023-01-10T05:03:32;5.50;99.90
10437;DHT22;5265;50.006;9.202;2023-01-10T05:05:59;5.40;99.90
10437;DHT22;5265;50.006;9.202;2023-01-10T05:08:26;5.60;99.90
10437;DHT22;5265;50.006;9.202;2023-01-10T05:10:53;5.40;99.90
10437;DHT22;5265;50.006;9.202;2023-01-10T05:13:20;5.40;99.90
10437;DHT22;5265;50.006;9.202;2023-01-10T05:15:48;5.40;99.90
10437;DHT22;5265;50.006;9.202;2023-01-10T05:18:16;5.40;99.90
10437;DHT22;5265;50.006;9.202;2023-01-10T05:20:43;5.40;99.90
10437;DHT22;5265;50.006;9.202;2023-01-10T05:23:10;5.40;99.90
10437;DHT22;5265;50.006;9.202;2023-01-10T05:25:37;5.40;99.90
10437;DHT22;5265;50.006;9.202;2023-01-10T05:28:04;5.40;99.90
10437;DHT22;5265;50.006;9.202;2023-01-10T05:30:31;5.30;99.90
10437;DHT22;5265;50.006;9.202;2023-01-10T05:32:59;5.40;99.90
10437;DHT22;5265;50.006;9.202;2023-01-10T05:35:27;5.40;99.90
10437;DHT22;5265;50.006;9.202;2023-01-10T05:37:54;5.30;99.90
10437;DHT22;5265;50.006;9.202;2023-01-10T05:40:21;5.30;99.90
10437;DHT22;5265;50.006;9.202;2023-01-10T05:42:49;5.60;99.90
10437;DHT22;5265;50.006;9.202;2023-01-10T05:45:15;5.50;99.90
10437;DHT22;5265;50.006;9.202;2023-01-10T05:47:42;5.30;99.90
10437;DHT22;5265;50.006;9.202;2023-01-10T05:50:10;5.30;99.90
10437;DHT22;5265;50.006;9.202;2023-01-10T05:52:39;5.30;99.90
10437;DHT22;5265;50.006;9.202;2023-01-10T05:55:06;5.20;99.90
10437;DHT22;5265;50.006;9.202;2023-01-10T05:57:33;5.20;99.90
10437;DHT22;5265;50.006;9.202;2023-01-10T06:00:01;5.40;99.90
10437;DHT22;5265;50.006;9.202;2023-01-10T06:02:37;5.20;99.90
10437;DHT22;5265;50.006;9.202;2023-01-10T06:05:04;5.30;99.90
10437;DHT22;5265;50.006;9.202;2023-01-10T06:07:31;5.20;99.90
10437;DHT22;5265;50.006;9.202;2023-01-10T06:10:00;5.30;99.90
10437;DHT22;5265;50.006;9.202;2023-01-10T06:12:27;5.40;99.90
10437;DHT22;5265;50.006;9.202;2023-01-10T06:14:54;5.20;99.90
10437;DHT22;5265;50.006;9.202;2023-01-10T06:17:21;5.20;99.90
10437;DHT22;5265;50.006;9.202;2023-01-10T06:19:49;5.00;99.90
10437;DHT22;5265;50.006;9.202;2023-01-10T06:22:17;5.10;99.90
10437;DHT22;5265;50.006;9.202;2023-01-10T06:24:44;5.10;99.90
10437;DHT22;5265;50.006;9.202;2023-01-10T06:27:12;5.20;99.90
10437;DHT22;5265;50.006;9.202;2023-01-10T06:29:39;5.10;99.90
10437;DHT22;5265;50.006;9.202;2023-01-10T06:32:06;5.20;99.90
10437;DHT22;5265;50.006;9.202;2023-01-10T06:34:33;5.20;99.90
10437;DHT22;5265;50.006;9.202;2023-01-10T06:37:01;5.10;99.90
10437;DHT22;5265;50.006;9.202;2023-01-10T06:39:28;5.10;99.90
10437;DHT22;5265;50.006;9.202;2023-01-10T06:41:54;5.10;99.90
10437;DHT22;5265;50.006;9.202;2023-01-10T06:44:23;5.10;99.90
10437;DHT22;5265;50.006;9.202;2023-01-10T06:46:50;5.10;99.90
10437;DHT22;5265;50.006;9.202;2023-01-10T06:49:17;5.80;99.90
10437;DHT22;5265;50.006;9.202;2023-01-10T06:51:44;5.20;99.90
10437;DHT22;5265;50.006;9.202;2023-01-10T06:54:11;5.10;99.90
10437;DHT22;5265;50.006;9.202;2023-01-10T06:56:38;5.20;99.90
10437;DHT22;5265;50.006;9.202;2023-01-10T06:59:05;5.10;99.90
10437;DHT22;5265;50.006;9.202;2023-01-10T07:01:34;5.10;99.90
10437;DHT22;5265;50.006;9.202;2023-01-10T07:04:01;5.20;99.90
10437;DHT22;5265;50.006;9.202;2023-01-10T07:06:28;5.20;99.90
10437;DHT22;5265;50.006;9.202;2023-01-10T07:08:56;5.10;99.90
10437;DHT22;5265;50.006;9.202;2023-01-10T07:11:23;5.20;99.90
10437;DHT22;5265;50.006;9.202;2023-01-10T07:13:50;5.30;99.90
10437;DHT22;5265;50.006;9.202;2023-01-10T07:16:18;5.20;99.90
10437;DHT22;5265;50.006;9.202;2023-01-10T07:18:47;5.20;99.90
10437;DHT22;5265;50.006;9.202;2023-01-10T07:21:14;5.20;99.90
10437;DHT22;5265;50.006;9.202;2023-01-10T07:23:42;5.20;99.90
10437;DHT22;5265;50.006;9.202;2023-01-10T07:26:10;5.20;99.90
10437;DHT22;5265;50.006;9.202;2023-01-10T07:28:41;5.20;99.90
10437;DHT22;5265;50.006;9.202;2023-01-10T07:31:09;5.20;99.90
10437;DHT22;5265;50.006;9.202;2023-01-10T07:33:38;5.20;99.90
10437;DHT22;5265;50.006;9.202;2023-01-10T07:36:07;5.20;99.90
10437;DHT22;5265;50.006;9.202;2023-01-10T07:38:34;5.10;99.90
10437;DHT22;5265;50.006;9.202;2023-01-10T07:41:01;5.20;99.90
10437;DHT22;5265;50.006;9.202;2023-01-10T07:43:28;5.30;99.90
10437;DHT22;5265;50.006;9.202;2023-01-10T07:45:56;5.30;99.90
10437;DHT22;5265;50.006;9.202;2023-01-10T07:48:23;5.30;99.90
10437;DHT22;5265;50.006;9.202;2023-01-10T07:50:53;5.40;99.90
10437;DHT22;5265;50.006;9.202;2023-01-10T07:53:22;5.50;99.90
10437;DHT22;5265;50.006;9.202;2023-01-10T07:55:49;5.40;99.90
10437;DHT22;5265;50.006;9.202;2023-01-10T07:58:17;5.40;99.90
10437;DHT22;5265;50.006;9.202;2023-01-10T08:00:44;5.40;99.90
10437;DHT22;5265;50.006;9.202;2023-01-10T08:03:11;5.30;99.90
10437;DHT22;5265;50.006;9.202;2023-01-10T08:05:38;5.30;99.90
10437;DHT22;5265;50.006;9.202;2023-01-10T08:08:05;5.30;99.90
10437;DHT22;5265;50.006;9.202;2023-01-10T08:10:35;5.30;99.90
10437;DHT22;5265;50.006;9.202;2023-01-10T08:13:02;5.30;99.90
10437;DHT22;5265;50.006;9.202;2023-01-10T08:15:29;5.30;99.90
10437;DHT22;5265;50.006;9.202;2023-01-10T08:17:58;5.30;99.90
10437;DHT22;5265;50.006;9.202;2023-01-10T08:20:25;5.30;99.90
10437;DHT22;5265;50.006;9.202;2023-01-10T08:22:52;5.20;99.90
10437;DHT22;5265;50.006;9.202;2023-01-10T08:25:19;5.30;99.90
10437;DHT22;5265;50.006;9.202;2023-01-10T08:27:48;5.30;99.90
10437;DHT22;5265;50.006;9.202;2023-01-10T08:30:15;5.40;99.90
10437;DHT22;5265;50.006;9.202;2023-01-10T08:32:42;5.30;99.90
10437;DHT22;5265;50.006;9.202;2023-01-10T08:35:09;5.40;99.90
10437;DHT22;5265;50.006;9.202;2023-01-10T08:37:37;5.40;99.90
10437;DHT22;5265;50.006;9.202;2023-01-10T08:40:04;5.30;99.90
10437;DHT22;5265;50.006;9.202;2023-01-10T08:42:32;5.30;99.90
10437;DHT22;5265;50.006;9.202;2023-01-10T08:45:00;5.30;99.90
10437;DHT22;5265;50.006;9.202;2023-01-10T08:47:28;5.60;99.90
10437;DHT22;5265;50.006;9.202;2023-01-10T08:49:55;5.40;99.90
10437;DHT22;5265;50.006;9.202;2023-01-10T08:52:22;5.40;99.90
10437;DHT22;5265;50.006;9.202;2023-01-10T08:54:49;5.50;99.90
10437;DHT22;5265;50.006;9.202;2023-01-10T08:57:16;5.40;99.90
10437;DHT22;5265;50.006;9.202;2023-01-10T08:59:44;5.50;99.90
10437;DHT22;5265;50.006;9.202;2023-01-10T09:02:12;5.70;99.90
10437;DHT22;5265;50.006;9.202;2023-01-10T09:04:39;5.70;99.90
10437;DHT22;5265;50.006;9.202;2023-01-10T09:07:06;5.70;99.90
10437;DHT22;5265;50.006;9.202;2023-01-10T09:09:34;5.70;99.90
10437;DHT22;5265;50.006;9.202;2023-01-10T09:12:01;5.80;99.90
10437;DHT22;5265;50.006;9.202;2023-01-10T09:14:49;5.70;99.90
10437;DHT22;5265;50.006;9.202;2023-01-10T09:17:17;5.70;99.90
10437;DHT22;5265;50.006;9.202;2023-01-10T09:19:45;5.80;99.90
10437;DHT22;5265;50.006;9.202;2023-01-10T09:22:12;5.80;99.90
10437;DHT22;5265;50.006;9.202;2023-01-10T09:24:39;5.90;99.90
10437;DHT22;5265;50.006;9.202;2023-01-10T09:27:08;5.90;99.90
10437;DHT22;5265;50.006;9.202;2023-01-10T09:29:35;5.90;99.90
10437;DHT22;5265;50.006;9.202;2023-01-10T09:32:03;5.90;99.90
10437;DHT22;5265;50.006;9.202;2023-01-10T09:34:32;5.90;99.90
10437;DHT22;5265;50.006;9.202;2023-01-10T09:36:59;5.90;99.90
10437;DHT22;5265;50.006;9.202;2023-01-10T09:39:26;6.10;99.90
10437;DHT22;5265;50.006;9.202;2023-01-10T09:41:57;5.90;99.90
10437;DHT22;5265;50.006;9.202;2023-01-10T09:44:29;6.10;99.90
10437;DHT22;5265;50.006;9.202;2023-01-10T09:47:04;6.10;99.90
10437;DHT22;5265;50.006;9.202;2023-01-10T09:49:40;6.10;99.90
10437;DHT22;5265;50.006;9.202;2023-01-10T09:52:10;6.10;99.90
10437;DHT22;5265;50.006;9.202;2023-01-10T09:54:41;6.20;99.90
10437;DHT22;5265;50.006;9.202;2023-01-10T09:57:09;6.20;99.90
10437;DHT22;5265;50.006;9.202;2023-01-10T09:59:39;6.10;99.90
10437;DHT22;5265;50.006;9.202;2023-01-10T10:02:13;6.10;99.90
10437;DHT22;5265;50.006;9.202;2023-01-10T10:04:44;6.20;99.90
10437;DHT22;5265;50.006;9.202;2023-01-10T10:07:12;6.20;99.90
10437;DHT22;5265;50.006;9.202;2023-01-10T10:09:40;6.20;99.90
10437;DHT22;5265;50.006;9.202;2023-01-10T10:12:13;6.40;99.90
10437;DHT22;5265;50.006;9.202;2023-01-10T10:14:46;6.30;99.90
10437;DHT22;5265;50.006;9.202;2023-01-10T10:17:20;6.10;99.90
10437;DHT22;5265;50.006;9.202;2023-01-10T10:19:57;6.10;99.90
10437;DHT22;5265;50.006;9.202;2023-01-10T10:22:28;6.10;99.90
10437;DHT22;5265;50.006;9.202;2023-01-10T10:25:00;6.20;99.90
10437;DHT22;5265;50.006;9.202;2023-01-10T10:27:32;6.20;99.90
10437;DHT22;5265;50.006;9.202;2023-01-10T10:30:12;6.20;99.90
10437;DHT22;5265;50.006;9.202;2023-01-10T10:32:49;6.40;99.90
10437;DHT22;5265;50.006;9.202;2023-01-10T10:35:23;6.30;99.90
10437;DHT22;5265;50.006;9.202;2023-01-10T10:37:52;6.20;99.90
10437;DHT22;5265;50.006;9.202;2023-01-10T10:40:21;6.30;99.90
10437;DHT22;5265;50.006;9.202;2023-01-10T10:42:51;6.30;99.90
10437;DHT22;5265;50.006;9.202;2023-01-10T10:45:19;6.30;99.90
10437;DHT22;5265;50.006;9.202;2023-01-10T10:47:48;6.30;99.90
10437;DHT22;5265;50.006;9.202;2023-01-10T10:50:18;6.40;99.90
10437;DHT22;5265;50.006;9.202;2023-01-10T10:52:48;6.40;99.90
10437;DHT22;5265;50.006;9.202;2023-01-10T10:55:16;6.40;99.90
10437;DHT22;5265;50.006;9.202;2023-01-10T10:57:44;6.40;99.90
10437;DHT22;5265;50.006;9.202;2023-01-10T11:00:13;6.40;99.90
10437;DHT22;5265;50.006;9.202;2023-01-10T11:02:42;6.50;99.90
10437;DHT22;5265;50.006;9.202;2023-01-10T11:05:14;6.50;99.90
10437;DHT22;5265;50.006;9.202;2023-01-10T11:07:42;6.50;99.90
10437;DHT22;5265;50.006;9.202;2023-01-10T11:10:13;6.60;99.90
10437;DHT22;5265;50.006;9.202;2023-01-10T11:12:45;6.60;99.90
10437;DHT22;5265;50.006;9.202;2023-01-10T11:18:02;6.60;99.90
10437;DHT22;5265;50.006;9.202;2023-01-10T11:20:29;6.60;99.90
10437;DHT22;5265;50.006;9.202;2023-01-10T11:22:57;6.80;99.90
10437;DHT22;5265;50.006;9.202;2023-01-10T11:25:25;6.70;99.90
10437;DHT22;5265;50.006;9.202;2023-01-10T11:27:53;6.70;99.90
10437;DHT22;5265;50.006;9.202;2023-01-10T11:30:21;6.70;99.90
10437;DHT22;5265;50.006;9.202;2023-01-10T11:32:50;6.70;99.90
10437;DHT22;5265;50.006;9.202;2023-01-10T11:35:19;6.60;99.90
10437;DHT22;5265;50.006;9.202;2023-01-10T11:37:57;6.60;99.90
10437;DHT22;5265;50.006;9.202;2023-01-10T11:40:26;6.50;99.90
10437;DHT22;5265;50.006;9.202;2023-01-10T11:42:54;6.60;99.90
10437;DHT22;5265;50.006;9.202;2023-01-10T11:45:22;6.70;99.90
10437;DHT22;5265;50.006;9.202;2023-01-10T11:47:51;6.70;99.90
10437;DHT22;5265;50.006;9.202;2023-01-10T11:50:20;6.60;99.90
10437;DHT22;5265;50.006;9.202;2023-01-10T11:52:47;6.70;99.90
10437;DHT22;5265;50.006;9.202;2023-01-10T11:55:17;6.70;99.90
10437;DHT22;5265;50.006;9.202;2023-01-10T11:57:46;6.70;99.90
10437;DHT22;5265;50.006;9.202;2023-01-10T12:00:20;6.80;99.90
10437;DHT22;5265;50.006;9.202;2023-01-10T12:02:47;6.80;99.90
10437;DHT22;5265;50.006;9.202;2023-01-10T12:05:18;6.80;99.90
10437;DHT22;5265;50.006;9.202;2023-01-10T12:07:55;6.80;99.90
10437;DHT22;5265;50.006;9.202;2023-01-10T12:10:23;6.80;99.90
10437;DHT22;5265;50.006;9.202;2023-01-10T12:12:55;6.70;99.90
10437;DHT22;5265;50.006;9.202;2023-01-10T12:15:24;6.70;99.90
10437;DHT22;5265;50.006;9.202;2023-01-10T12:17:52;6.80;99.90
10437;DHT22;5265;50.006;9.202;2023-01-10T12:20:20;6.80;99.90
10437;DHT22;5265;50.006;9.202;2023-01-10T12:22:49;6.70;99.90
10437;DHT22;5265;50.006;9.202;2023-01-10T12:25:17;6.70;99.90
10437;DHT22;5265;50.006;9.202;2023-01-10T12:27:46;6.70;99.90
10437;DHT22;5265;50.006;9.202;2023-01-10T12:30:17;6.70;99.90
10437;DHT22;5265;50.006;9.202;2023-01-10T12:32:47;6.70;99.90
10437;DHT22;5265;50.006;9.202;2023-01-10T12:35:16;6.70;99.90
10437;DHT22;5265;50.006;9.202;2023-01-10T12:37:45;6.70;99.90
10437;DHT22;5265;50.006;9.202;2023-01-10T12:40:14;6.80;99.90
10437;DHT22;5265;50.006;9.202;2023-01-10T12:42:48;6.70;99.90
10437;DHT22;5265;50.006;9.202;2023-01-10T12:45:38;6.70;99.90
10437;DHT22;5265;50.006;9.202;2023-01-10T12:48:09;6.70;99.90
10437;DHT22;5265;50.006;9.202;2023-01-10T12:50:39;6.70;99.90
10437;DHT22;5265;50.006;9.202;2023-01-10T12:53:10;6.70;99.90
10437;DHT22;5265;50.006;9.202;2023-01-10T12:55:40;6.90;99.90
10437;DHT22;5265;50.006;9.202;2023-01-10T12:58:10;6.70;99.90
10437;DHT22;5265;50.006;9.202;2023-01-10T13:00:41;6.70;99.90
10437;DHT22;5265;50.006;9.202;2023-01-10T13:03:10;6.70;99.90
10437;DHT22;5265;50.006;9.202;2023-01-10T13:05:38;6.70;99.90
10437;DHT22;5265;50.006;9.202;2023-01-10T13:08:06;6.80;99.90
10437;DHT22;5265;50.006;9.202;2023-01-10T13:10:34;6.80;99.90
10437;DHT22;5265;50.006;9.202;2023-01-10T13:13:05;6.70;99.90
10437;DHT22;5265;50.006;9.202;2023-01-10T13:15:36;6.80;99.90
10437;DHT22;5265;50.006;9.202;2023-01-10T13:18:13;6.80;99.90
10437;DHT22;5265;50.006;9.202;2023-01-10T13:20:41;6.80;99.90
10437;DHT22;5265;50.006;9.202;2023-01-10T13:23:20;6.80;99.90
10437;DHT22;5265;50.006;9.202;2023-01-10T13:25:55;6.70;99.90
10437;DHT22;5265;50.006;9.202;2023-01-10T13:28:24;6.70;99.90
10437;DHT22;5265;50.006;9.202;2023-01-10T13:30:52;6.90;99.90
10437;DHT22;5265;50.006;9.202;2023-01-10T13:33:22;6.80;99.90
10437;DHT22;5265;50.006;9.202;2023-01-10T13:35:49;6.70;99.90
10437;DHT22;5265;50.006;9.202;2023-01-10T13:38:17;6.70;99.90
10437;DHT22;5265;50.006;9.202;2023-01-10T13:40:58;6.70;99.90
10437;DHT22;5265;50.006;9.202;2023-01-10T13:43:29;6.70;99.90
10437;DHT22;5265;50.006;9.202;2023-01-10T13:49:17;6.70;99.90
10437;DHT22;5265;50.006;9.202;2023-01-10T13:51:34;6.60;99.90
10437;DHT22;5265;50.006;9.202;2023-01-10T13:54:01;6.70;99.90
10437;DHT22;5265;50.006;9.202;2023-01-10T13:56:32;6.80;99.90
10437;DHT22;5265;50.006;9.202;2023-01-10T13:59:00;6.80;99.90
10437;DHT22;5265;50.006;9.202;2023-01-10T14:01:48;6.80;99.90
10437;DHT22;5265;50.006;9.202;2023-01-10T14:04:35;6.80;99.90
10437;DHT22;5265;50.006;9.202;2023-01-10T14:07:03;6.90;99.90
10437;DHT22;5265;50.006;9.202;2023-01-10T14:09:41;6.80;99.90
10437;DHT22;5265;50.006;9.202;2023-01-10T14:12:23;6.80;99.90
10437;DHT22;5265;50.006;9.202;2023-01-10T14:14:53;6.90;99.90
10437;DHT22;5265;50.006;9.202;2023-01-10T14:17:22;6.90;99.90
10437;DHT22;5265;50.006;9.202;2023-01-10T14:19:58;6.90;99.90
10437;DHT22;5265;50.006;9.202;2023-01-10T14:22:26;6.80;99.90
10437;DHT22;5265;50.006;9.202;2023-01-10T14:24:55;6.80;99.90
10437;DHT22;5265;50.006;9.202;2023-01-10T14:27:23;6.80;99.90
10437;DHT22;5265;50.006;9.202;2023-01-10T14:29:52;6.80;99.90
10437;DHT22;5265;50.006;9.202;2023-01-10T14:32:26;6.80;99.90
10437;DHT22;5265;50.006;9.202;2023-01-10T14:34:57;6.70;99.90
10437;DHT22;5265;50.006;9.202;2023-01-10T14:37:27;6.80;99.90
10437;DHT22;5265;50.006;9.202;2023-01-10T14:39:56;6.70;99.90
10437;DHT22;5265;50.006;9.202;2023-01-10T14:42:24;6.70;99.90
10437;DHT22;5265;50.006;9.202;2023-01-10T14:44:53;6.70;99.90
10437;DHT22;5265;50.006;9.202;2023-01-10T14:47:27;6.70;99.90
10437;DHT22;5265;50.006;9.202;2023-01-10T14:49:55;6.60;99.90
10437;DHT22;5265;50.006;9.202;2023-01-10T14:52:24;6.70;99.90
10437;DHT22;5265;50.006;9.202;2023-01-10T14:55:00;6.80;99.90
10437;DHT22;5265;50.006;9.202;2023-01-10T14:57:28;6.60;99.90
10437;DHT22;5265;50.006;9.202;2023-01-10T15:00:06;6.70;99.90
10437;DHT22;5265;50.006;9.202;2023-01-10T15:02:34;6.60;99.90
10437;DHT22;5265;50.006;9.202;2023-01-10T15:05:05;6.70;99.90
10437;DHT22;5265;50.006;9.202;2023-01-10T15:07:35;6.60;99.90
10437;DHT22;5265;50.006;9.202;2023-01-10T15:10:09;6.60;99.90
10437;DHT22;5265;50.006;9.202;2023-01-10T15:12:43;6.60;99.90
10437;DHT22;5265;50.006;9.202;2023-01-10T15:15:12;6.60;99.90
10437;DHT22;5265;50.006;9.202;2023-01-10T15:17:41;6.60;99.90
10437;DHT22;5265;50.006;9.202;2023-01-10T15:20:12;6.60;99.90
10437;DHT22;5265;50.006;9.202;2023-01-10T15:22:41;6.50;99.90
10437;DHT22;5265;50.006;9.202;2023-01-10T15:25:23;6.50;99.90
10437;DHT22;5265;50.006;9.202;2023-01-10T15:27:51;6.50;99.90
10437;DHT22;5265;50.006;9.202;2023-01-10T15:30:19;6.50;99.90
10437;DHT22;5265;50.006;9.202;2023-01-10T15:32:47;6.50;99.90
10437;DHT22;5265;50.006;9.202;2023-01-10T15:35:15;6.50;99.90
10437;DHT22;5265;50.006;9.202;2023-01-10T15:37:44;6.50;99.90
10437;DHT22;5265;50.006;9.202;2023-01-10T15:40:18;6.40;99.90
10437;DHT22;5265;50.006;9.202;2023-01-10T15:42:47;6.50;99.90
10437;DHT22;5265;50.006;9.202;2023-01-10T15:45:17;6.40;99.90
10437;DHT22;5265;50.006;9.202;2023-01-10T15:47:51;6.40;99.90
10437;DHT22;5265;50.006;9.202;2023-01-10T15:50:21;6.40;99.90
10437;DHT22;5265;50.006;9.202;2023-01-10T15:52:50;6.40;99.90
10437;DHT22;5265;50.006;9.202;2023-01-10T15:55:19;6.30;99.90
10437;DHT22;5265;50.006;9.202;2023-01-10T15:57:46;6.30;99.90
10437;DHT22;5265;50.006;9.202;2023-01-10T16:00:17;6.30;99.90
10437;DHT22;5265;50.006;9.202;2023-01-10T16:02:47;6.30;99.90
10437;DHT22;5265;50.006;9.202;2023-01-10T16:05:16;6.30;99.90
10437;DHT22;5265;50.006;9.202;2023-01-10T16:07:44;6.30;99.90
10437;DHT22;5265;50.006;9.202;2023-01-10T16:10:16;6.20;99.90
10437;DHT22;5265;50.006;9.202;2023-01-10T16:12:44;6.30;99.90
10437;DHT22;5265;50.006;9.202;2023-01-10T16:15:29;6.20;99.90
10437;DHT22;5265;50.006;9.202;2023-01-10T16:17:56;6.20;99.90
10437;DHT22;5265;50.006;9.202;2023-01-10T16:20:24;6.00;99.90
10437;DHT22;5265;50.006;9.202;2023-01-10T16:22:52;6.10;99.90
10437;DHT22;5265;50.006;9.202;2023-01-10T16:25:24;6.00;99.90
10437;DHT22;5265;50.006;9.202;2023-01-10T16:27:52;5.90;99.90
10437;DHT22;5265;50.006;9.202;2023-01-10T16:30:21;6.00;99.90
10437;DHT22;5265;50.006;9.202;2023-01-10T16:32:49;6.00;99.90
10437;DHT22;5265;50.006;9.202;2023-01-10T16:35:16;6.00;99.90
10437;DHT22;5265;50.006;9.202;2023-01-10T16:37:44;5.90;99.90